createdAt,value
2023-04-04T00:02:08.506Z,6.87
2023-04-04T00:07:10.643Z,7.75
2023-04-04T00:12:12.792Z,8.32
2023-04-04T00:17:14.941Z,7.20
2023-04-04T00:22:18.169Z,6.45
2023-04-04T00:27:20.413Z,7.50
2023-04-04T00:32:22.626Z,6.87
2023-04-04T00:37:24.883Z,7.12
2023-04-04T00:42:27.856Z,7.20
2023-04-04T00:47:33.704Z,9.45
2023-04-04T00:52:37.541Z,7.28
2023-04-04T00:57:40.090Z,7.45
2023-04-04T01:02:42.358Z,6.22
2023-04-04T01:07:44.579Z,7.60
2023-04-04T01:12:47.637Z,7.37
2023-04-04T01:17:50.909Z,6.57
2023-04-04T01:22:54.730Z,7.72
2023-04-04T01:27:56.866Z,6.15
2023-04-04T01:33:09.620Z,6.30
2023-04-04T01:38:24.738Z,6.97
2023-04-04T01:43:27.733Z,8.10
2023-04-04T01:48:30.049Z,9.38
2023-04-04T01:53:32.191Z,7.25
2023-04-04T01:58:34.345Z,7.13
2023-04-04T02:03:36.665Z,9.02
2023-04-04T02:08:39.537Z,10.00
2023-04-04T02:13:44.449Z,6.93
2023-04-04T02:18:46.803Z,7.37
2023-04-04T02:23:48.945Z,6.23
2023-04-04T02:28:51.058Z,6.87
2023-04-04T02:33:53.199Z,7.82
2023-04-04T02:38:55.490Z,6.85
2023-04-04T02:43:57.642Z,7.50
2023-04-04T02:49:01.966Z,9.83
2023-04-04T02:54:05.301Z,7.30
2023-04-04T02:59:07.762Z,7.62
2023-04-04T03:04:10.473Z,7.55
2023-04-04T03:09:12.672Z,7.65
2023-04-04T03:14:14.831Z,6.97
2023-04-04T03:19:17.228Z,6.75
2023-04-04T03:24:19.653Z,9.13
2023-04-04T03:29:21.776Z,7.12
2023-04-04T03:34:24.822Z,7.35
2023-04-04T03:39:30.366Z,6.13
2023-04-04T03:44:32.494Z,9.40
2023-04-04T03:49:34.994Z,9.88
2023-04-04T03:54:37.201Z,7.32
2023-04-04T03:59:39.369Z,9.45
2023-04-04T04:04:41.650Z,8.13
2023-04-04T04:09:43.940Z,6.87
2023-04-04T04:14:46.144Z,8.23
2023-04-04T04:19:48.720Z,6.85
2023-04-04T04:24:50.835Z,7.62
2023-04-04T04:29:53.024Z,7.63
2023-04-04T04:34:55.122Z,7.40
2023-04-04T04:39:57.385Z,7.32
2023-04-04T04:44:59.626Z,9.27
2023-04-04T04:50:01.915Z,8.40
2023-04-04T04:55:05.025Z,10.43
2023-04-04T05:00:07.818Z,9.05
2023-04-04T05:05:10.877Z,8.93
2023-04-04T05:10:13.137Z,9.40
2023-04-04T05:15:15.310Z,9.57
2023-04-04T05:20:17.555Z,11.60
2023-04-04T05:25:19.915Z,11.55
2023-04-04T05:30:22.049Z,10.23
2023-04-04T05:35:25.308Z,10.10
2023-04-04T05:40:27.530Z,11.75
2023-04-04T05:45:29.992Z,10.80
2023-04-04T05:50:32.206Z,12.65
2023-04-04T05:55:34.311Z,9.68
2023-04-04T06:00:37.458Z,9.63
2023-04-04T06:05:39.990Z,10.15
2023-04-04T06:10:42.171Z,9.33
2023-04-04T06:15:44.368Z,9.20
2023-04-04T06:20:46.604Z,7.70
2023-04-04T06:25:48.871Z,8.55
2023-04-04T06:30:51.186Z,8.35
2023-04-04T06:35:53.344Z,7.10
2023-04-04T06:40:55.645Z,10.43
2023-04-04T06:45:58.094Z,8.07
2023-04-04T06:51:08.357Z,6.93
2023-04-04T06:56:10.930Z,7.40
2023-04-04T07:01:13.080Z,8.63
2023-04-04T07:06:15.808Z,8.27
2023-04-04T07:11:18.007Z,7.75
2023-04-04T07:16:20.353Z,11.98
2023-04-04T07:21:23.099Z,8.40
2023-04-04T07:26:25.368Z,13.17
2023-04-04T07:31:27.553Z,7.40
2023-04-04T07:36:29.712Z,9.13
2023-04-04T07:41:32.080Z,8.30
2023-04-04T07:46:34.263Z,7.97
2023-04-04T07:51:36.941Z,9.03
2023-04-04T07:56:41.005Z,9.35
2023-04-04T08:01:44.647Z,8.13
2023-04-04T08:06:48.272Z,8.68
2023-04-04T08:11:50.458Z,7.12
2023-04-04T08:16:52.783Z,8.17
2023-04-04T08:21:55.902Z,6.85
2023-04-04T08:27:05.222Z,6.65
2023-04-04T08:32:08.129Z,8.65
2023-04-04T08:37:11.529Z,8.07
2023-04-04T08:42:16.956Z,7.40
2023-04-04T08:47:20.253Z,7.32
2023-04-04T08:52:23.664Z,7.78
2023-04-04T08:57:26.285Z,9.20
2023-04-04T09:02:52.509Z,7.25
2023-04-04T09:07:56.412Z,7.60
2023-04-04T09:13:12.539Z,8.05
2023-04-04T09:18:19.030Z,8.18
2023-04-04T09:23:23.600Z,7.13
2023-04-04T09:28:26.432Z,7.05
2023-04-04T09:33:28.987Z,9.30
2023-04-04T09:38:34.053Z,7.22
2023-04-04T09:43:37.709Z,8.68
2023-04-04T09:48:40.350Z,7.43
2023-04-04T09:53:42.721Z,9.82
2023-04-04T09:59:02.378Z,7.00
2023-04-04T10:04:06.435Z,9.40
2023-04-04T10:09:09.094Z,7.93
2023-04-04T10:14:12.448Z,7.57
2023-04-04T10:19:18.739Z,6.82
2023-04-04T10:24:21.096Z,7.10
2023-04-04T10:29:24.420Z,8.32
2023-04-04T10:34:38.988Z,6.55
2023-04-04T10:39:50.619Z,6.97
2023-04-04T10:44:54.082Z,9.40
2023-04-04T10:49:57.311Z,6.60
2023-04-04T10:55:02.904Z,6.87
2023-04-04T11:00:10.792Z,8.43
2023-04-04T11:05:47.258Z,7.57
2023-04-04T11:10:51.759Z,6.80
2023-04-04T11:16:01.349Z,7.17
2023-04-04T11:21:05.656Z,8.02
2023-04-04T11:26:08.608Z,7.72
2023-04-04T11:31:20.750Z,8.10
2023-04-04T11:36:38.221Z,7.53
2023-04-04T11:42:11.608Z,7.53
2023-04-04T11:47:14.231Z,7.93
2023-04-04T11:52:17.899Z,9.98
2023-04-04T11:57:21.735Z,9.13
2023-04-04T12:02:32.185Z,8.18
2023-04-04T12:07:36.340Z,8.30
2023-04-04T12:12:39.644Z,8.30
2023-04-04T12:17:43.527Z,8.82
2023-04-04T12:22:49.999Z,7.93
2023-04-04T12:27:53.486Z,7.57
2023-04-04T12:32:56.202Z,7.33
2023-04-04T12:38:10.822Z,7.43
2023-04-04T12:43:17.911Z,7.68
2023-04-04T12:48:28.779Z,7.47
2023-04-04T12:53:33.016Z,7.37
2023-04-04T12:58:37.497Z,8.10
2023-04-04T13:03:39.997Z,9.48
2023-04-04T13:09:01.227Z,8.38
2023-04-04T13:14:04.400Z,8.97
2023-04-04T13:19:07.311Z,7.35
2023-04-04T13:24:09.427Z,7.43
2023-04-04T13:29:11.929Z,9.60
2023-04-04T13:34:14.048Z,6.72
2023-04-04T13:39:16.326Z,7.87
2023-04-04T13:44:18.542Z,9.10
2023-04-04T13:49:20.835Z,7.67
2023-04-04T13:54:24.328Z,7.68
2023-04-04T13:59:26.505Z,7.00
2023-04-04T14:04:28.842Z,8.50
2023-04-04T14:09:31.292Z,7.28
2023-04-04T14:14:35.588Z,7.63
2023-04-04T14:19:39.723Z,7.70
2023-04-04T14:24:41.910Z,7.95
2023-04-04T14:29:44.201Z,7.67
2023-04-04T14:34:46.364Z,7.78
2023-04-04T14:39:48.786Z,7.37
2023-04-04T14:44:51.180Z,7.25
2023-04-04T14:49:54.945Z,7.35
2023-04-04T14:54:58.452Z,7.07
2023-04-04T15:00:00.879Z,7.40
2023-04-04T15:05:03.742Z,7.80
2023-04-04T15:10:07.003Z,9.02
2023-04-04T15:15:10.069Z,8.82
2023-04-04T15:20:12.688Z,7.17
2023-04-04T15:25:14.837Z,7.50
2023-04-04T15:30:17.014Z,7.47
2023-04-04T15:35:20.993Z,7.32
2023-04-04T15:40:23.222Z,8.48
2023-04-04T15:45:27.505Z,8.17
2023-04-04T15:50:30.170Z,7.85
2023-04-04T15:55:32.329Z,7.87
2023-04-04T16:00:34.482Z,9.32
2023-04-04T16:05:36.673Z,8.95
2023-04-04T16:10:39.042Z,8.40
2023-04-04T16:15:41.776Z,9.35
2023-04-04T16:20:43.883Z,8.10
2023-04-04T16:25:46.259Z,10.25
2023-04-04T16:30:48.423Z,8.18
2023-04-04T16:35:50.608Z,9.30
2023-04-04T16:40:52.749Z,9.05
2023-04-04T16:45:54.965Z,9.57
2023-04-04T16:50:57.388Z,9.45
2023-04-04T16:55:59.557Z,9.13
2023-04-04T17:01:01.857Z,9.73
2023-04-04T17:06:06.187Z,10.75
2023-04-04T17:11:08.591Z,12.03
2023-04-04T17:16:10.850Z,9.43
2023-04-04T17:21:13.065Z,10.23
2023-04-04T17:26:15.428Z,12.10
2023-04-04T17:31:17.686Z,11.05
2023-04-04T17:36:20.412Z,10.67
2023-04-04T17:41:22.729Z,10.35
2023-04-04T17:46:25.571Z,9.23
2023-04-04T17:51:28.674Z,11.77
2023-04-04T17:56:31.546Z,10.35
2023-04-04T18:01:33.838Z,11.23
2023-04-04T18:06:37.637Z,10.32
2023-04-04T18:11:41.908Z,10.45
2023-04-04T18:16:44.434Z,11.30
2023-04-04T18:21:54.450Z,10.98
2023-04-04T18:26:56.702Z,10.73
2023-04-04T18:32:02.782Z,10.35
2023-04-04T18:37:04.986Z,9.57
2023-04-04T18:42:08.594Z,9.95
2023-04-04T18:47:11.817Z,11.48
2023-04-04T18:52:14.054Z,10.27
2023-04-04T18:57:16.547Z,14.87
2023-04-04T19:02:18.740Z,11.45
2023-04-04T19:07:24.715Z,11.00
2023-04-04T19:12:27.536Z,12.20
2023-04-04T19:17:30.260Z,11.77
2023-04-04T19:22:32.710Z,10.13
2023-04-04T19:27:34.952Z,9.50
2023-04-04T19:32:37.145Z,10.65
2023-04-04T19:37:39.344Z,9.63
2023-04-04T19:42:41.619Z,9.20
2023-04-04T19:47:43.794Z,15.38
2023-04-04T19:52:45.982Z,11.60
2023-04-04T19:57:48.130Z,11.12
2023-04-04T20:02:52.945Z,13.27
2023-04-04T20:07:55.848Z,11.40
2023-04-04T20:12:57.998Z,16.27
2023-04-04T20:18:00.602Z,10.13
2023-04-04T20:23:06.067Z,9.00
2023-04-04T20:28:08.364Z,10.35
2023-04-04T20:33:35.002Z,11.70
2023-04-04T20:38:39.699Z,10.93
2023-04-04T20:43:49.211Z,11.57
2023-04-04T20:48:54.346Z,10.23
2023-04-04T20:54:00.499Z,10.70
2023-04-04T20:59:02.737Z,10.00
2023-04-04T21:04:05.103Z,10.68
2023-04-04T21:09:07.339Z,10.90
2023-04-04T21:14:21.695Z,11.12
2023-04-04T21:19:24.475Z,10.57
2023-04-04T21:24:32.298Z,9.23
2023-04-04T21:29:34.461Z,10.02
2023-04-04T21:34:36.711Z,9.40
2023-04-04T21:39:38.944Z,9.55
2023-04-04T21:44:41.233Z,11.40
2023-04-04T21:49:43.378Z,9.93
2023-04-04T21:54:45.770Z,9.70
2023-04-04T21:59:47.856Z,10.05
2023-04-04T22:04:50.067Z,11.32
2023-04-04T22:09:52.905Z,12.23
2023-04-04T22:14:58.713Z,10.30
2023-04-04T22:20:01.198Z,11.00
2023-04-04T22:25:04.448Z,11.77
2023-04-04T22:30:07.557Z,10.30
2023-04-04T22:35:13.376Z,10.77
2023-04-04T22:40:15.649Z,10.97
2023-04-04T22:45:18.552Z,11.55
2023-04-04T22:50:25.344Z,13.15
2023-04-04T22:55:28.155Z,10.73
2023-04-04T23:00:30.622Z,9.77
2023-04-04T23:05:32.781Z,9.70
2023-04-04T23:10:34.985Z,9.63
2023-04-04T23:15:37.922Z,10.57
2023-04-04T23:20:41.001Z,9.00
2023-04-04T23:25:43.261Z,10.70
2023-04-04T23:30:45.628Z,10.30
2023-04-04T23:35:47.906Z,11.43
2023-04-04T23:40:50.136Z,10.50
2023-04-04T23:45:52.719Z,9.38
2023-04-04T23:50:56.618Z,11.30
2023-04-04T23:55:58.806Z,10.07
